Time;durP1;ratioP1;P1;durP2;ratioP2;P2;SDS_P1;SDS_P2;PMS_P1;PMS_P2;Temp;Humidity;BMP_temperature;BMP_pressure;BME280_temperature;BME280_humidity;BME280_pressure;Samples;Min_cycle;Max_cycle;Signal;HPM_P1;HPM_P2
2023/11/25 00:01:47;;;;;;;4.20;1.60;;;4.70;99.90;;;;;;5070095;28;20236;-75
2023/11/25 00:04:34;;;;;;;9.98;2.50;;;4.70;99.90;;;;;;5072354;28;20201;-76
2023/11/25 00:07:20;;;;;;;5.43;1.90;;;4.70;99.90;;;;;;5070953;28;20197;-76
2023/11/25 00:10:07;;;;;;;5.80;1.52;;;4.70;99.90;;;;;;5082661;28;20204;-75
2023/11/25 00:12:53;;;;;;;6.65;1.90;;;4.70;99.90;;;;;;5078985;28;20219;-76
2023/11/25 00:15:39;;;;;;;3.28;1.20;;;4.70;99.90;;;;;;5090277;28;20212;-76
2023/11/25 00:18:25;;;;;;;9.40;1.45;;;4.70;99.90;;;;;;5077094;28;20254;-75
2023/11/25 00:21:12;;;;;;;5.70;1.88;;;4.70;99.90;;;;;;5077614;28;20275;-75
2023/11/25 00:23:58;;;;;;;9.25;2.47;;;4.80;99.90;;;;;;5084290;28;20242;-75
2023/11/25 00:26:43;;;;;;;6.00;1.42;;;4.80;99.90;;;;;;5083998;28;20228;-75
2023/11/25 00:29:29;;;;;;;8.80;1.70;;;4.80;99.90;;;;;;5081639;28;20208;-76
2023/11/25 00:32:15;;;;;;;3.67;1.60;;;4.80;99.90;;;;;;5072578;28;20219;-76
2023/11/25 00:35:01;;;;;;;3.78;1.50;;;4.70;99.90;;;;;;5078562;28;20204;-76
2023/11/25 00:37:48;;;;;;;3.53;1.60;;;4.80;99.90;;;;;;5070057;28;20200;-75
2023/11/25 00:40:33;;;;;;;5.05;1.98;;;4.80;99.90;;;;;;5080072;28;20227;-76
2023/11/25 00:43:19;;;;;;;4.30;1.63;;;4.80;99.90;;;;;;5077983;28;20331;-75
2023/11/25 00:46:05;;;;;;;8.68;1.77;;;4.80;99.90;;;;;;5072682;28;20219;-75
2023/11/25 00:48:52;;;;;;;9.82;1.90;;;4.70;99.90;;;;;;5076858;28;20215;-75
2023/11/25 00:51:38;;;;;;;4.60;1.90;;;4.80;99.90;;;;;;5080735;28;20231;-76
2023/11/25 00:54:25;;;;;;;6.07;1.92;;;4.80;99.90;;;;;;5080373;28;20227;-75
2023/11/25 00:57:11;;;;;;;4.80;1.75;;;4.80;99.90;;;;;;5082422;28;20777;-76
2023/11/25 00:59:56;;;;;;;5.35;1.65;;;4.70;99.90;;;;;;5077785;28;20650;-75
2023/11/25 01:02:42;;;;;;;10.10;2.30;;;4.70;99.90;;;;;;5075647;28;20196;-76
2023/11/25 01:05:28;;;;;;;9.13;2.28;;;4.70;99.90;;;;;;5078602;28;20351;-75
2023/11/25 01:08:14;;;;;;;6.93;2.13;;;4.60;99.90;;;;;;5076505;28;20335;-75
2023/11/25 01:11:01;;;;;;;2.55;1.60;;;4.60;99.90;;;;;;5078128;28;20742;-75
2023/11/25 01:13:47;;;;;;;3.70;1.45;;;4.50;99.90;;;;;;5077287;28;20333;-76
2023/11/25 01:16:32;;;;;;;11.13;1.67;;;4.40;99.90;;;;;;5079820;28;20331;-75
2023/11/25 01:19:18;;;;;;;4.75;1.83;;;4.40;99.90;;;;;;5074671;28;20705;-76
2023/11/25 01:22:04;;;;;;;4.13;1.20;;;4.30;99.90;;;;;;5077613;28;20232;-75
2023/11/25 01:24:50;;;;;;;5.75;2.00;;;4.20;99.90;;;;;;5080091;28;20201;-75
2023/11/25 01:27:38;;;;;;;3.42;1.50;;;4.20;99.90;;;;;;5077447;28;20770;-75
2023/11/25 01:30:24;;;;;;;5.18;1.50;;;4.10;99.90;;;;;;5077909;28;20208;-76
2023/11/25 01:33:10;;;;;;;5.18;1.65;;;4.10;99.90;;;;;;5080261;28;20254;-76
2023/11/25 01:35:55;;;;;;;6.60;1.95;;;4.10;99.90;;;;;;5074471;28;20212;-75
2023/11/25 01:38:41;;;;;;;6.05;1.80;;;4.10;99.90;;;;;;5072876;28;20203;-76
2023/11/25 01:41:27;;;;;;;6.05;1.70;;;4.10;99.90;;;;;;5079908;28;20222;-76
2023/11/25 01:44:14;;;;;;;5.70;1.45;;;4.10;99.90;;;;;;5079606;28;20691;-76
2023/11/25 01:46:59;;;;;;;4.63;2.30;;;4.10;99.90;;;;;;5068610;28;20357;-76
2023/11/25 01:49:45;;;;;;;2.45;1.83;;;4.10;99.90;;;;;;5072305;28;20492;-75
2023/11/25 01:52:32;;;;;;;5.90;2.03;;;4.00;99.90;;;;;;5078553;28;20225;-76
2023/11/25 01:55:18;;;;;;;5.90;2.00;;;3.90;99.90;;;;;;5071088;28;20208;-76
2023/11/25 01:58:04;;;;;;;5.10;1.75;;;3.80;99.90;;;;;;5071679;28;20220;-76
2023/11/25 02:00:51;;;;;;;5.10;2.08;;;3.80;99.90;;;;;;5069026;28;20235;-76
2023/11/25 02:03:37;;;;;;;4.50;1.55;;;3.70;99.90;;;;;;5085444;28;20578;-76
2023/11/25 02:06:23;;;;;;;8.48;2.90;;;3.70;99.90;;;;;;5076895;28;20749;-75
2023/11/25 02:09:08;;;;;;;9.70;2.78;;;3.70;99.90;;;;;;5079489;28;20223;-76
2023/11/25 02:11:55;;;;;;;4.10;2.20;;;3.70;99.90;;;;;;5072349;28;20232;-75
2023/11/25 02:14:41;;;;;;;8.73;2.42;;;3.70;99.90;;;;;;5075792;28;20234;-75
2023/11/25 02:17:28;;;;;;;8.18;2.15;;;3.70;99.90;;;;;;5081234;28;20226;-76
2023/11/25 02:20:14;;;;;;;7.45;2.42;;;3.70;99.90;;;;;;5078884;28;20204;-75
2023/11/25 02:23:01;;;;;;;4.93;2.10;;;3.70;99.90;;;;;;5079754;28;20204;-75
2023/11/25 02:25:47;;;;;;;6.22;2.35;;;3.80;99.90;;;;;;5072535;28;20238;-76
2023/11/25 02:28:35;;;;;;;5.07;2.28;;;3.80;99.90;;;;;;5080628;28;20207;-75
2023/11/25 02:31:22;;;;;;;6.53;2.75;;;3.70;99.90;;;;;;5069718;28;20269;-76
2023/11/25 02:34:09;;;;;;;7.30;2.80;;;3.80;99.90;;;;;;5082005;28;20574;-75
2023/11/25 02:36:55;;;;;;;7.13;2.90;;;3.70;99.90;;;;;;5067760;28;20271;-76
2023/11/25 02:39:42;;;;;;;12.02;3.90;;;3.70;99.90;;;;;;5085755;28;20204;-76
2023/11/25 02:42:28;;;;;;;7.95;3.00;;;3.70;99.90;;;;;;5078654;28;20225;-76
2023/11/25 02:45:18;;;;;;;6.78;2.55;;;3.80;99.90;;;;;;5069079;28;20308;-75
2023/11/25 02:48:04;;;;;;;7.53;2.47;;;3.90;99.90;;;;;;5071178;28;20664;-75
2023/11/25 02:50:50;;;;;;;7.65;2.70;;;3.90;99.90;;;;;;5074765;28;20231;-77
2023/11/25 02:53:36;;;;;;;5.90;2.45;;;3.80;99.90;;;;;;5079050;28;20200;-76
2023/11/25 02:56:23;;;;;;;5.10;2.30;;;3.80;99.90;;;;;;5082175;28;20241;-75
2023/11/25 02:59:09;;;;;;;6.22;2.50;;;3.80;99.90;;;;;;5071121;28;20204;-76
2023/11/25 03:01:58;;;;;;;8.88;2.33;;;3.70;99.90;;;;;;5071083;28;20351;-76
2023/11/25 03:04:46;;;;;;;6.75;3.13;;;3.60;99.90;;;;;;5103183;22;20247;-72
2023/11/25 03:07:33;;;;;;;8.07;2.30;;;3.60;99.90;;;;;;5059238;28;20299;-72
2023/11/25 03:10:19;;;;;;;7.20;2.58;;;3.50;99.90;;;;;;5052674;28;20267;-73
2023/11/25 03:13:06;;;;;;;6.35;2.20;;;3.50;99.90;;;;;;5047810;28;20622;-73
2023/11/25 03:15:53;;;;;;;6.47;2.40;;;3.60;99.90;;;;;;5056499;28;20223;-73
2023/11/25 03:18:39;;;;;;;10.95;3.33;;;3.50;99.90;;;;;;5059047;28;20235;-74
2023/11/25 03:21:24;;;;;;;16.58;3.10;;;3.60;99.90;;;;;;5053389;28;20283;-73
2023/11/25 03:24:10;;;;;;;12.68;3.05;;;3.50;99.90;;;;;;5060107;28;20247;-73
2023/11/25 03:26:56;;;;;;;5.40;2.47;;;3.50;99.90;;;;;;5055160;28;20608;-73
2023/11/25 03:29:43;;;;;;;5.63;2.40;;;3.50;99.90;;;;;;5046340;28;20251;-73
2023/11/25 03:32:29;;;;;;;5.32;2.65;;;3.40;99.90;;;;;;5046393;28;20216;-74
2023/11/25 03:35:15;;;;;;;7.68;2.72;;;3.40;99.90;;;;;;5043199;28;20228;-75
2023/11/25 03:38:00;;;;;;;6.43;2.80;;;3.40;99.90;;;;;;5055393;28;20322;-75
2023/11/25 03:40:46;;;;;;;11.68;3.10;;;3.50;99.90;;;;;;5050288;28;20270;-76
2023/11/25 03:43:32;;;;;;;5.40;2.05;;;3.60;99.90;;;;;;5054389;28;20208;-75
2023/11/25 03:46:19;;;;;;;8.60;2.83;;;3.70;99.90;;;;;;5065731;28;20227;-76
2023/11/25 03:49:05;;;;;;;10.45;2.88;;;3.70;99.90;;;;;;5059351;28;20585;-75
2023/11/25 03:51:51;;;;;;;4.40;2.42;;;3.60;99.90;;;;;;5047556;28;20216;-74
2023/11/25 03:54:38;;;;;;;9.30;3.58;;;3.60;99.90;;;;;;5057792;28;20203;-75
2023/11/25 03:57:24;;;;;;;5.00;3.05;;;3.50;99.90;;;;;;5064097;28;20296;-74
2023/11/25 04:00:15;;;;;;;5.97;2.30;;;3.50;99.90;;;;;;5060079;28;20205;-75
2023/11/25 04:03:02;;;;;;;7.30;2.88;;;3.50;99.90;;;;;;5045613;28;20283;-76
2023/11/25 04:05:47;;;;;;;8.52;2.67;;;3.30;99.90;;;;;;5055527;28;20594;-75
2023/11/25 04:08:33;;;;;;;6.50;2.15;;;3.20;99.90;;;;;;5057455;28;20245;-75
2023/11/25 04:11:19;;;;;;;8.07;2.70;;;3.20;99.90;;;;;;5061953;28;20215;-75
2023/11/25 04:14:05;;;;;;;10.80;2.33;;;3.20;99.90;;;;;;5056358;28;20688;-75
2023/11/25 04:16:52;;;;;;;4.50;2.83;;;3.20;99.90;;;;;;5057710;28;20224;-76
2023/11/25 04:19:39;;;;;;;6.78;2.55;;;3.10;99.90;;;;;;5055168;28;20711;-75
2023/11/25 04:22:25;;;;;;;12.40;2.60;;;3.10;99.90;;;;;;5065598;28;20205;-76
2023/11/25 04:25:11;;;;;;;7.80;2.58;;;3.00;99.90;;;;;;5060475;28;20236;-75
2023/11/25 04:27:57;;;;;;;6.13;2.40;;;3.00;99.90;;;;;;5051604;28;20244;-75
2023/11/25 04:30:43;;;;;;;5.28;2.08;;;3.00;99.90;;;;;;5055157;28;20788;-75
2023/11/25 04:33:29;;;;;;;4.65;2.15;;;2.90;99.90;;;;;;5068137;28;20274;-75
2023/11/25 04:36:17;;;;;;;3.80;2.47;;;2.80;99.90;;;;;;5065955;28;20330;-75
2023/11/25 04:39:04;;;;;;;7.85;2.90;;;2.80;99.90;;;;;;5047058;28;20288;-76
2023/11/25 04:41:49;;;;;;;6.47;2.55;;;2.80;99.90;;;;;;5050682;28;20575;-75
2023/11/25 04:44:35;;;;;;;5.95;2.40;;;2.70;99.90;;;;;;5053295;28;20213;-75
2023/11/25 04:47:21;;;;;;;7.95;2.70;;;2.70;99.90;;;;;;5056958;28;20224;-75
2023/11/25 04:50:08;;;;;;;6.65;2.42;;;2.80;99.90;;;;;;5054513;28;20275;-75
2023/11/25 04:52:55;;;;;;;5.95;2.30;;;2.80;99.90;;;;;;5046104;28;20640;-76
2023/11/25 04:55:40;;;;;;;8.35;2.97;;;2.80;99.90;;;;;;5056883;28;20219;-75
2023/11/25 04:58:26;;;;;;;7.13;2.65;;;2.80;99.90;;;;;;5069728;28;20192;-75
2023/11/25 05:01:12;;;;;;;6.00;2.50;;;2.80;99.90;;;;;;5056307;28;20691;-74
2023/11/25 05:03:58;;;;;;;3.17;2.20;;;2.80;99.90;;;;;;5049867;28;20695;-75
2023/11/25 05:06:44;;;;;;;9.90;2.80;;;2.80;99.90;;;;;;5057152;28;20235;-77
2023/11/25 05:09:31;;;;;;;8.77;2.63;;;2.70;99.90;;;;;;5059151;28;20248;-75
2023/11/25 05:12:19;;;;;;;8.35;2.60;;;2.70;99.90;;;;;;5064290;28;20254;-75
2023/11/25 05:15:07;;;;;;;3.55;2.55;;;2.70;99.90;;;;;;5061917;28;20726;-75
2023/11/25 05:17:53;;;;;;;8.48;2.63;;;2.70;99.90;;;;;;5054923;28;20711;-75
2023/11/25 05:20:39;;;;;;;10.82;2.60;;;2.70;99.90;;;;;;5068175;28;20274;-75
2023/11/25 05:23:25;;;;;;;5.50;2.40;;;2.70;99.90;;;;;;5064508;28;20301;-75
2023/11/25 05:26:13;;;;;;;6.93;2.70;;;2.70;99.90;;;;;;5063414;28;20260;-76
2023/11/25 05:28:59;;;;;;;10.15;3.17;;;2.80;99.90;;;;;;5061494;28;20556;-75
2023/11/25 05:31:45;;;;;;;5.85;2.72;;;2.90;99.90;;;;;;5059526;28;20203;-75
2023/11/25 05:34:31;;;;;;;7.80;3.40;;;2.90;99.90;;;;;;5063230;28;20251;-75
2023/11/25 05:37:19;;;;;;;6.78;3.20;;;3.00;99.90;;;;;;5064463;28;20232;-75
2023/11/25 05:40:09;;;;;;;6.25;3.15;;;3.10;99.90;;;;;;5066852;28;20285;-75
2023/11/25 05:42:58;;;;;;;7.25;3.42;;;3.30;99.90;;;;;;5063931;28;20204;-75
2023/11/25 05:45:44;;;;;;;9.55;3.58;;;3.20;99.90;;;;;;5068287;28;20244;-75
2023/11/25 05:48:30;;;;;;;6.60;3.15;;;3.30;99.90;;;;;;5061035;28;20228;-75
2023/11/25 05:51:16;;;;;;;14.77;4.10;;;3.30;99.90;;;;;;5066233;28;20208;-75
2023/11/25 05:54:01;;;;;;;10.15;3.78;;;3.30;99.90;;;;;;5055480;28;20203;-75
2023/11/25 05:56:48;;;;;;;8.15;3.30;;;3.30;99.90;;;;;;5057294;28;20692;-75
2023/11/25 05:59:35;;;;;;;9.32;3.70;;;3.30;99.90;;;;;;5066688;28;20205;-75
2023/11/25 06:02:20;;;;;;;10.20;4.07;;;3.30;99.90;;;;;;5065945;28;20264;-75
2023/11/25 06:05:06;;;;;;;11.48;6.93;;;3.40;99.90;;;;;;5064349;28;20351;-75
2023/11/25 06:07:52;;;;;;;17.17;7.55;;;3.40;99.90;;;;;;5062816;28;20591;-75
2023/11/25 06:10:38;;;;;;;18.67;10.18;;;3.30;99.90;;;;;;5059488;28;20286;-75
2023/11/25 06:13:23;;;;;;;14.18;8.00;;;3.30;99.90;;;;;;5066420;28;20208;-76
2023/11/25 06:16:13;;;;;;;16.67;10.40;;;3.40;99.90;;;;;;5069133;28;20224;-76
2023/11/25 06:19:00;;;;;;;14.30;8.23;;;3.40;99.90;;;;;;5060024;28;20203;-75
2023/11/25 06:21:47;;;;;;;8.45;4.38;;;3.40;99.90;;;;;;5068406;28;20657;-75
2023/11/25 06:24:32;;;;;;;9.45;3.70;;;3.50;99.90;;;;;;5064169;28;20201;-75
2023/11/25 06:27:19;;;;;;;11.63;4.95;;;3.50;99.90;;;;;;5061365;28;20228;-76
2023/11/25 06:30:06;;;;;;;13.77;5.03;;;3.50;99.90;;;;;;5068399;28;20207;-75
2023/11/25 06:32:53;;;;;;;9.85;4.75;;;3.50;99.90;;;;;;5053681;28;20299;-76
2023/11/25 06:35:39;;;;;;;16.02;4.38;;;3.50;99.90;;;;;;5066837;28;20229;-75
2023/11/25 06:38:24;;;;;;;10.15;3.83;;;3.60;99.90;;;;;;5066315;28;20282;-75
2023/11/25 06:41:11;;;;;;;8.63;3.70;;;3.60;99.90;;;;;;5068221;28;20204;-75
2023/11/25 06:43:57;;;;;;;7.30;4.15;;;3.70;99.90;;;;;;5062037;28;20204;-75
2023/11/25 06:46:43;;;;;;;7.88;4.32;;;3.70;99.90;;;;;;5067819;28;20227;-75
2023/11/25 06:49:30;;;;;;;12.38;4.28;;;3.70;99.90;;;;;;5057769;28;20305;-75
2023/11/25 06:52:16;;;;;;;7.70;4.47;;;3.80;99.90;;;;;;5048393;28;20209;-77
2023/11/25 06:55:01;;;;;;;17.10;6.82;;;3.90;99.90;;;;;;5056224;28;20330;-75
2023/11/25 06:57:49;;;;;;;39.75;11.82;;;3.80;99.90;;;;;;5044650;28;20217;-75
2023/11/25 07:00:34;;;;;;;34.50;11.68;;;3.70;99.90;;;;;;5051299;28;20586;-75
2023/11/25 07:03:20;;;;;;;24.40;9.35;;;3.80;99.90;;;;;;5053695;28;20341;-76
2023/11/25 07:06:07;;;;;;;20.33;7.25;;;3.80;99.90;;;;;;5055454;28;20642;-76
2023/11/25 07:08:53;;;;;;;20.02;7.88;;;3.90;99.90;;;;;;5054179;28;20715;-75
2023/11/25 07:11:40;;;;;;;14.65;6.20;;;3.90;99.90;;;;;;5052662;28;20216;-76
2023/11/25 07:14:26;;;;;;;13.55;4.57;;;3.90;99.90;;;;;;5056352;28;20224;-75
2023/11/25 07:17:12;;;;;;;12.52;5.38;;;4.00;99.90;;;;;;5051810;28;20676;-75
2023/11/25 07:19:57;;;;;;;11.77;4.97;;;4.00;99.90;;;;;;5057433;28;20212;-76
2023/11/25 07:22:45;;;;;;;15.77;4.28;;;4.00;99.90;;;;;;5056933;28;20678;-76
2023/11/25 07:25:32;;;;;;;14.77;5.10;;;4.00;99.90;;;;;;5052505;28;20780;-77
2023/11/25 07:28:17;;;;;;;9.20;4.93;;;3.90;99.90;;;;;;5055461;28;20214;-75
2023/11/25 07:31:03;;;;;;;11.70;4.35;;;3.90;99.90;;;;;;5056836;28;20205;-78
2023/11/25 07:33:49;;;;;;;17.80;5.50;;;4.00;99.90;;;;;;5049947;28;20268;-76
2023/11/25 07:36:35;;;;;;;15.60;7.15;;;4.00;99.90;;;;;;5051583;28;20267;-76
2023/11/25 07:39:23;;;;;;;9.50;5.93;;;4.00;99.90;;;;;;5054890;28;20205;-75
2023/11/25 07:42:09;;;;;;;9.07;5.50;;;4.00;99.90;;;;;;5060533;28;20213;-75
2023/11/25 07:44:54;;;;;;;15.57;7.82;;;3.90;99.90;;;;;;5043211;28;20205;-75
2023/11/25 07:47:41;;;;;;;9.85;4.80;;;3.90;99.90;;;;;;5049418;28;20278;-76
2023/11/25 07:50:27;;;;;;;12.70;5.70;;;3.90;99.90;;;;;;5051739;28;20198;-75
2023/11/25 07:53:13;;;;;;;14.82;6.25;;;4.00;99.90;;;;;;5059336;28;20212;-75
2023/11/25 07:56:01;;;;;;;18.90;5.20;;;4.00;99.90;;;;;;5044362;28;20288;-75
2023/11/25 07:58:46;;;;;;;10.75;3.70;;;4.10;99.90;;;;;;5046374;28;20286;-75
2023/11/25 08:01:32;;;;;;;8.90;4.10;;;4.20;99.90;;;;;;5053491;28;20211;-76
2023/11/25 08:04:17;;;;;;;11.68;4.25;;;4.20;99.90;;;;;;5058649;28;20276;-76
2023/11/25 08:07:03;;;;;;;13.77;6.63;;;4.30;99.90;;;;;;5059025;28;20244;-75
2023/11/25 08:09:49;;;;;;;9.60;4.00;;;4.40;99.90;;;;;;5056083;28;20577;-76
2023/11/25 08:12:36;;;;;;;17.40;6.25;;;4.50;99.90;;;;;;5051383;28;20208;-75
2023/11/25 08:15:22;;;;;;;12.48;4.70;;;4.60;99.90;;;;;;5050224;28;20735;-75
2023/11/25 08:18:07;;;;;;;8.43;3.40;;;4.60;99.90;;;;;;5055976;28;20579;-74
2023/11/25 08:20:53;;;;;;;9.73;4.25;;;4.60;99.90;;;;;;5051204;28;20321;-75
2023/11/25 08:23:39;;;;;;;10.25;4.00;;;4.60;99.90;;;;;;5056463;28;20331;-75
2023/11/25 08:26:26;;;;;;;14.30;4.70;;;4.50;99.90;;;;;;5047450;28;20233;-76
2023/11/25 08:29:13;;;;;;;16.98;6.07;;;4.50;99.90;;;;;;5052782;28;20728;-75
2023/11/25 08:31:59;;;;;;;16.88;5.10;;;4.60;99.90;;;;;;5052084;28;20220;-75
2023/11/25 08:34:45;;;;;;;13.02;4.40;;;4.50;99.90;;;;;;5051242;28;20600;-75
2023/11/25 08:37:31;;;;;;;15.30;4.15;;;4.50;99.90;;;;;;5044096;28;20210;-75
2023/11/25 08:40:21;;;;;;;9.05;4.00;;;4.50;99.90;;;;;;5055626;28;20205;-77
2023/11/25 08:43:11;;;;;;;10.15;3.70;;;4.60;99.90;;;;;;5036973;28;20634;-75
2023/11/25 08:45:59;;;;;;;10.40;2.95;;;4.70;99.90;;;;;;5051107;28;20217;-75
2023/11/25 08:48:45;;;;;;;15.32;4.07;;;4.80;99.90;;;;;;5052045;28;20636;-75
2023/11/25 08:51:31;;;;;;;13.85;3.30;;;4.80;99.90;;;;;;5052602;28;20201;-76
2023/11/25 08:54:17;;;;;;;22.48;4.15;;;4.90;99.90;;;;;;5052923;28;20558;-76
2023/11/25 08:57:03;;;;;;;10.48;3.55;;;4.80;99.90;;;;;;5048659;28;20237;-75
2023/11/25 08:59:50;;;;;;;14.02;5.05;;;4.70;99.90;;;;;;5043836;28;20570;-76
2023/11/25 09:02:37;;;;;;;14.85;3.45;;;4.80;99.90;;;;;;5054234;28;20259;-74
2023/11/25 09:05:25;;;;;;;13.40;3.13;;;4.70;99.90;;;;;;5067438;22;20241;-75
2023/11/25 09:08:10;;;;;;;10.50;3.92;;;4.70;99.90;;;;;;5048550;28;20247;-75
2023/11/25 09:10:57;;;;;;;12.43;3.08;;;4.70;99.90;;;;;;5056852;28;20204;-74
2023/11/25 09:13:43;;;;;;;9.68;3.40;;;4.80;99.90;;;;;;5059816;28;20209;-75
2023/11/25 09:16:29;;;;;;;13.68;3.45;;;4.80;99.90;;;;;;5055657;28;20287;-74
2023/11/25 09:19:15;;;;;;;15.65;2.85;;;4.80;99.90;;;;;;5053573;28;20205;-75
2023/11/25 09:22:01;;;;;;;7.97;3.00;;;4.70;99.90;;;;;;5050897;28;20216;-75
2023/11/25 09:24:47;;;;;;;11.48;2.97;;;4.70;99.90;;;;;;5055519;28;20194;-75
2023/11/25 09:27:35;;;;;;;10.40;3.25;;;4.80;99.90;;;;;;5047919;28;20205;-75
2023/11/25 09:30:23;;;;;;;7.43;2.70;;;4.80;99.90;;;;;;5055542;28;20318;-75
2023/11/25 09:33:08;;;;;;;11.82;3.50;;;4.80;99.90;;;;;;5055098;28;20579;-75
2023/11/25 09:35:56;;;;;;;14.77;3.13;;;4.80;99.90;;;;;;5054124;28;20302;-75
2023/11/25 09:38:42;;;;;;;14.05;3.08;;;4.70;99.90;;;;;;5053825;28;20283;-75
2023/11/25 09:41:30;;;;;;;12.88;2.58;;;4.70;99.90;;;;;;5050271;28;20555;-75
2023/11/25 09:44:16;;;;;;;12.57;3.25;;;4.70;99.90;;;;;;5054415;28;20577;-75
2023/11/25 09:47:02;;;;;;;9.68;2.83;;;4.60;99.90;;;;;;5048926;28;21195;-75
2023/11/25 09:49:48;;;;;;;13.63;4.10;;;4.60;99.90;;;;;;5053288;28;20739;-75
2023/11/25 09:52:43;;;;;;;7.68;2.40;;;4.60;99.90;;;;;;5041003;28;20205;-75
2023/11/25 09:55:31;;;;;;;9.50;3.40;;;4.70;99.90;;;;;;5049174;28;20222;-75
2023/11/25 09:58:17;;;;;;;6.40;3.28;;;4.60;99.90;;;;;;5051430;28;20220;-76
2023/11/25 10:01:05;;;;;;;11.90;3.22;;;4.70;99.90;;;;;;5053720;28;20258;-76
2023/11/25 10:03:53;;;;;;;10.95;3.15;;;4.70;99.90;;;;;;5050459;28;20210;-76
2023/11/25 10:06:39;;;;;;;10.63;3.60;;;4.70;99.90;;;;;;5052791;28;20327;-76
2023/11/25 10:09:26;;;;;;;14.43;3.30;;;4.70;99.90;;;;;;5049883;28;20229;-75
2023/11/25 10:12:13;;;;;;;19.25;3.90;;;4.70;99.90;;;;;;5054031;28;20664;-76
2023/11/25 10:15:00;;;;;;;17.35;3.40;;;4.60;99.90;;;;;;5047941;28;20204;-76
2023/11/25 10:17:46;;;;;;;6.60;2.72;;;4.60;99.90;;;;;;5053647;28;20209;-75
2023/11/25 10:20:42;;;;;;;7.32;4.18;;;4.60;99.90;;;;;;5053564;28;20718;-75
2023/11/25 10:23:29;;;;;;;13.90;3.67;;;4.60;99.90;;;;;;5052546;28;20210;-75
2023/11/25 10:26:18;;;;;;;9.70;3.00;;;4.70;99.90;;;;;;5052944;28;20217;-75
2023/11/25 10:29:04;;;;;;;16.25;3.25;;;4.80;99.90;;;;;;5048386;28;20229;-76
2023/11/25 10:31:56;;;;;;;15.65;3.97;;;4.80;99.90;;;;;;5053152;28;20206;-76
2023/11/25 10:34:42;;;;;;;11.32;3.05;;;4.70;99.90;;;;;;5037322;28;20264;-75
2023/11/25 10:37:27;;;;;;;11.52;3.60;;;4.70;99.90;;;;;;5050895;28;20809;-75
2023/11/25 10:40:16;;;;;;;13.02;3.50;;;4.60;99.90;;;;;;5044341;28;20615;-76
2023/11/25 10:43:04;;;;;;;13.10;3.33;;;4.70;99.90;;;;;;5052294;28;20216;-75
2023/11/25 10:45:50;;;;;;;11.43;3.47;;;4.70;99.90;;;;;;5053431;28;20225;-75
2023/11/25 10:48:38;;;;;;;10.10;3.20;;;4.80;99.90;;;;;;5053154;28;20225;-76
2023/11/25 10:51:24;;;;;;;8.13;3.33;;;4.70;99.90;;;;;;5049521;28;20210;-76
2023/11/25 10:54:10;;;;;;;10.93;3.45;;;4.70;99.90;;;;;;5052830;28;20251;-75
2023/11/25 10:56:56;;;;;;;8.20;3.40;;;4.60;99.90;;;;;;5052666;28;20754;-75
2023/11/25 10:59:43;;;;;;;20.48;4.22;;;4.50;99.90;;;;;;5051140;28;20771;-76
2023/11/25 11:02:31;;;;;;;9.88;3.65;;;4.60;99.90;;;;;;5052968;28;20275;-75
2023/11/25 11:05:23;;;;;;;11.50;4.32;;;4.60;99.90;;;;;;5052999;28;20281;-76
2023/11/25 11:08:13;;;;;;;12.95;4.85;;;4.70;99.90;;;;;;5058191;28;20576;-75
2023/11/25 11:11:03;;;;;;;7.20;3.45;;;4.70;99.90;;;;;;5047575;28;20258;-76
2023/11/25 11:13:56;;;;;;;11.02;4.78;;;4.80;99.90;;;;;;5054764;28;20213;-75
2023/11/25 11:16:49;;;;;;;13.55;4.00;;;4.80;99.90;;;;;;5054293;28;20272;-75
2023/11/25 11:19:40;;;;;;;14.05;4.40;;;4.90;99.90;;;;;;5045079;28;20201;-74
2023/11/25 11:22:28;;;;;;;14.27;4.15;;;4.90;99.90;;;;;;5054178;28;20337;-78
2023/11/25 11:25:20;;;;;;;11.40;4.35;;;4.90;99.90;;;;;;5048566;28;20209;-77
2023/11/25 11:28:13;;;;;;;16.15;4.05;;;4.90;99.90;;;;;;5042645;28;20301;-77
2023/11/25 11:31:28;;;;;;;14.52;3.72;;;4.90;99.90;;;;;;5053486;28;20252;-76
2023/11/25 11:34:15;;;;;;;13.23;4.10;;;5.00;99.90;;;;;;5044563;28;20333;-75
2023/11/25 11:37:01;;;;;;;13.32;4.00;;;5.10;99.90;;;;;;5049018;28;20221;-76
2023/11/25 11:40:00;;;;;;;10.38;3.88;;;5.20;99.90;;;;;;5041276;28;20224;-77
2023/11/25 11:42:48;;;;;;;9.43;3.60;;;5.20;99.90;;;;;;5048102;28;20794;-75
2023/11/25 11:45:34;;;;;;;11.73;3.35;;;5.20;99.90;;;;;;5053420;28;20226;-78
2023/11/25 11:48:22;;;;;;;19.38;4.05;;;5.20;99.90;;;;;;5044144;28;20202;-76
2023/11/25 11:51:10;;;;;;;23.17;4.18;;;5.20;99.90;;;;;;5054360;28;20201;-76
2023/11/25 11:54:24;;;;;;;15.30;3.95;;;5.20;99.90;;;;;;5052188;28;20283;-76
2023/11/25 11:57:13;;;;;;;12.35;3.33;;;5.20;99.90;;;;;;5049591;28;20229;-76
2023/11/25 12:00:00;;;;;;;12.07;3.30;;;5.20;99.90;;;;;;5043341;28;20679;-75
2023/11/25 12:02:47;;;;;;;8.18;2.63;;;5.20;99.90;;;;;;5047769;28;20217;-76
2023/11/25 12:05:33;;;;;;;22.92;4.03;;;5.20;99.90;;;;;;5054228;28;20225;-76
2023/11/25 12:08:21;;;;;;;15.23;3.63;;;5.30;99.90;;;;;;5054462;28;20201;-75
2023/11/25 12:11:07;;;;;;;16.80;3.92;;;5.30;99.90;;;;;;5053717;28;20202;-76
2023/11/25 12:13:53;;;;;;;18.35;4.72;;;5.30;99.90;;;;;;5055469;28;20196;-76
2023/11/25 12:16:38;;;;;;;25.92;3.85;;;5.30;99.90;;;;;;5052024;28;20314;-76
2023/11/25 12:19:25;;;;;;;11.93;3.90;;;5.40;99.90;;;;;;5050273;28;20205;-76
2023/11/25 12:22:11;;;;;;;18.73;3.60;;;5.40;99.90;;;;;;5056568;28;20204;-76
2023/11/25 12:24:58;;;;;;;18.50;5.20;;;5.40;99.90;;;;;;5056149;28;20202;-76
2023/11/25 12:27:50;;;;;;;13.65;5.20;;;5.50;99.90;;;;;;5054658;28;20704;-76
2023/11/25 12:30:37;;;;;;;16.30;4.77;;;5.50;99.90;;;;;;5050249;28;20214;-76
2023/11/25 12:33:23;;;;;;;18.63;3.78;;;5.50;99.90;;;;;;5044732;28;20546;-75
2023/11/25 12:36:09;;;;;;;8.98;3.38;;;5.50;99.90;;;;;;5052862;28;20303;-74
2023/11/25 12:38:54;;;;;;;21.55;3.85;;;5.50;99.90;;;;;;5055435;28;20209;-76
2023/11/25 12:41:41;;;;;;;18.08;4.88;;;5.50;99.90;;;;;;5053349;28;20202;-74
2023/11/25 12:44:28;;;;;;;11.73;5.35;;;5.50;99.90;;;;;;5053416;28;20200;-75
2023/11/25 12:47:15;;;;;;;13.25;4.88;;;5.50;99.90;;;;;;5051283;28;20295;-76
2023/11/25 12:50:05;;;;;;;15.18;3.92;;;5.60;99.90;;;;;;5055010;28;20224;-76
2023/11/25 12:53:04;;;;;;;9.63;4.10;;;5.50;99.90;;;;;;5053583;28;20209;-76
2023/11/25 12:55:50;;;;;;;15.13;3.80;;;5.60;99.90;;;;;;5055760;28;20217;-76
2023/11/25 12:58:43;;;;;;;16.38;5.35;;;5.70;99.90;;;;;;5055587;28;20727;-76
2023/11/25 13:01:29;;;;;;;11.85;4.50;;;5.70;99.90;;;;;;5054035;28;20276;-74
2023/11/25 13:04:15;;;;;;;13.30;4.40;;;5.80;99.90;;;;;;5057701;28;20256;-76
2023/11/25 13:07:02;;;;;;;9.38;4.40;;;5.80;99.90;;;;;;5059497;28;20287;-76
2023/11/25 13:09:48;;;;;;;21.92;5.50;;;5.70;99.90;;;;;;5052294;28;20707;-76
2023/11/25 13:12:36;;;;;;;13.68;4.00;;;5.70;99.90;;;;;;5053383;28;20317;-76
2023/11/25 13:15:23;;;;;;;15.52;5.07;;;5.70;99.90;;;;;;5051287;28;20207;-76
2023/11/25 13:18:09;;;;;;;9.82;3.40;;;5.70;99.90;;;;;;5050034;28;20232;-76
2023/11/25 13:20:57;;;;;;;14.27;3.75;;;5.70;99.90;;;;;;5056098;28;20795;-76
2023/11/25 13:23:42;;;;;;;8.93;3.00;;;5.70;99.90;;;;;;5051500;28;20291;-76
2023/11/25 13:26:28;;;;;;;19.65;5.50;;;5.70;99.90;;;;;;5053850;28;20268;-76
2023/11/25 13:29:14;;;;;;;12.30;6.20;;;5.70;99.90;;;;;;5054507;28;20235;-76
2023/11/25 13:32:01;;;;;;;12.20;3.97;;;5.80;99.90;;;;;;5055307;28;20257;-75
2023/11/25 13:34:46;;;;;;;10.68;4.70;;;5.80;99.90;;;;;;5051986;28;20438;-76
2023/11/25 13:37:35;;;;;;;8.13;3.65;;;5.90;99.90;;;;;;5055812;28;20230;-76
2023/11/25 13:40:27;;;;;;;10.10;6.93;;;5.90;99.90;;;;;;5052578;28;20260;-77
2023/11/25 13:43:14;;;;;;;10.32;5.95;;;5.90;99.90;;;;;;5051809;28;20876;-76
2023/11/25 13:46:00;;;;;;;5.97;3.00;;;5.90;99.90;;;;;;5049111;28;20593;-76
2023/11/25 13:48:47;;;;;;;21.98;3.92;;;6.00;99.90;;;;;;5049960;28;20224;-76
2023/11/25 13:51:33;;;;;;;9.33;3.63;;;5.90;99.90;;;;;;5055790;28;20205;-76
2023/11/25 13:54:18;;;;;;;13.95;4.07;;;5.90;99.90;;;;;;5052885;28;20425;-76
2023/11/25 13:57:05;;;;;;;10.38;4.47;;;5.80;99.90;;;;;;5050703;28;20229;-76
2023/11/25 13:59:51;;;;;;;9.43;3.63;;;5.80;99.90;;;;;;5052388;28;20268;-76
2023/11/25 14:02:36;;;;;;;14.65;4.35;;;5.70;99.90;;;;;;5055554;28;20212;-75
2023/11/25 14:05:23;;;;;;;8.23;4.22;;;5.50;99.90;;;;;;5053712;28;20208;-76
2023/11/25 14:08:10;;;;;;;6.82;4.10;;;5.60;99.90;;;;;;5054316;28;20206;-76
2023/11/25 14:10:56;;;;;;;13.68;3.90;;;5.70;99.90;;;;;;5053089;28;20224;-76
2023/11/25 14:13:42;;;;;;;8.65;3.38;;;5.70;99.90;;;;;;5056489;28;20197;-76
2023/11/25 14:16:27;;;;;;;13.35;4.15;;;5.80;99.90;;;;;;5054698;28;20225;-76
2023/11/25 14:19:13;;;;;;;15.10;3.88;;;5.70;99.90;;;;;;5054786;28;20248;-76
2023/11/25 14:22:00;;;;;;;11.00;5.00;;;5.70;99.90;;;;;;5051506;28;20286;-75
2023/11/25 14:24:46;;;;;;;6.20;3.80;;;5.80;99.90;;;;;;5051441;28;20241;-76
2023/11/25 14:27:32;;;;;;;7.88;3.60;;;5.80;99.90;;;;;;5055548;28;20325;-76
2023/11/25 14:30:18;;;;;;;6.95;3.60;;;5.80;99.90;;;;;;5052301;28;20300;-75
2023/11/25 14:33:05;;;;;;;6.63;3.30;;;5.70;99.90;;;;;;5053925;28;20336;-76
2023/11/25 14:35:50;;;;;;;11.80;4.35;;;5.80;99.90;;;;;;5053815;28;20724;-76